sensor_id;sensor_type;location;lat;lon;timestamp;P1;durP1;ratioP1;P2;durP2;ratioP2
6432;SDS011;3249;42.690;23.260;2024-02-26T00:02:18;30.40;;;21.23;;
6432;SDS011;3249;42.690;23.260;2024-02-26T00:04:49;26.43;;;20.90;;
6432;SDS011;3249;42.690;23.260;2024-02-26T00:07:19;34.53;;;22.70;;
6432;SDS011;3249;42.690;23.260;2024-02-26T00:09:48;28.20;;;21.03;;
6432;SDS011;3249;42.690;23.260;2024-02-26T00:12:17;28.27;;;20.83;;
6432;SDS011;3249;42.690;23.260;2024-02-26T00:14:47;32.40;;;21.40;;
6432;SDS011;3249;42.690;23.260;2024-02-26T00:17:18;29.67;;;20.50;;
6432;SDS011;3249;42.690;23.260;2024-02-26T00:19:50;25.67;;;20.77;;
6432;SDS011;3249;42.690;23.260;2024-02-26T00:22:19;31.40;;;20.80;;
6432;SDS011;3249;42.690;23.260;2024-02-26T00:24:51;28.30;;;21.17;;
6432;SDS011;3249;42.690;23.260;2024-02-26T00:27:20;30.63;;;21.57;;
6432;SDS011;3249;42.690;23.260;2024-02-26T00:29:49;30.07;;;21.63;;
6432;SDS011;3249;42.690;23.260;2024-02-26T00:32:18;34.10;;;23.40;;
6432;SDS011;3249;42.690;23.260;2024-02-26T00:34:50;28.97;;;21.27;;
6432;SDS011;3249;42.690;23.260;2024-02-26T00:37:19;32.07;;;21.23;;
6432;SDS011;3249;42.690;23.260;2024-02-26T00:39:48;32.50;;;22.23;;
6432;SDS011;3249;42.690;23.260;2024-02-26T00:42:18;31.53;;;22.03;;
6432;SDS011;3249;42.690;23.260;2024-02-26T00:44:47;32.13;;;22.17;;
6432;SDS011;3249;42.690;23.260;2024-02-26T00:47:16;29.37;;;22.60;;
6432;SDS011;3249;42.690;23.260;2024-02-26T00:49:47;29.17;;;22.03;;
6432;SDS011;3249;42.690;23.260;2024-02-26T00:52:18;29.27;;;20.97;;
6432;SDS011;3249;42.690;23.260;2024-02-26T00:54:48;36.07;;;22.83;;
6432;SDS011;3249;42.690;23.260;2024-02-26T00:57:17;30.00;;;22.57;;
6432;SDS011;3249;42.690;23.260;2024-02-26T00:59:46;38.23;;;23.33;;
6432;SDS011;3249;42.690;23.260;2024-02-26T01:02:16;33.80;;;21.80;;
6432;SDS011;3249;42.690;23.260;2024-02-26T01:04:45;34.53;;;23.67;;
6432;SDS011;3249;42.690;23.260;2024-02-26T01:07:17;32.50;;;23.00;;
6432;SDS011;3249;42.690;23.260;2024-02-26T01:09:48;32.10;;;22.53;;
6432;SDS011;3249;42.690;23.260;2024-02-26T01:12:17;33.57;;;24.37;;
6432;SDS011;3249;42.690;23.260;2024-02-26T01:14:46;34.47;;;23.83;;
6432;SDS011;3249;42.690;23.260;2024-02-26T01:17:16;33.90;;;24.53;;
6432;SDS011;3249;42.690;23.260;2024-02-26T01:19:45;31.07;;;23.73;;
6432;SDS011;3249;42.690;23.260;2024-02-26T01:22:14;36.63;;;23.77;;
6432;SDS011;3249;42.690;23.260;2024-02-26T01:24:46;33.00;;;24.33;;
6432;SDS011;3249;42.690;23.260;2024-02-26T01:27:16;29.73;;;23.43;;
6432;SDS011;3249;42.690;23.260;2024-02-26T01:29:45;31.07;;;23.40;;
6432;SDS011;3249;42.690;23.260;2024-02-26T01:32:15;33.57;;;23.80;;
6432;SDS011;3249;42.690;23.260;2024-02-26T01:34:45;29.70;;;22.37;;
6432;SDS011;3249;42.690;23.260;2024-02-26T01:37:17;35.07;;;22.90;;
6432;SDS011;3249;42.690;23.260;2024-02-26T01:39:46;34.50;;;23.50;;
6432;SDS011;3249;42.690;23.260;2024-02-26T01:42:16;29.40;;;22.63;;
6432;SDS011;3249;42.690;23.260;2024-02-26T01:44:45;30.03;;;23.60;;
6432;SDS011;3249;42.690;23.260;2024-02-26T01:47:14;30.83;;;22.63;;
6432;SDS011;3249;42.690;23.260;2024-02-26T01:49:44;29.00;;;22.03;;
6432;SDS011;3249;42.690;23.260;2024-02-26T01:52:13;29.43;;;22.57;;
6432;SDS011;3249;42.690;23.260;2024-02-26T01:54:46;27.57;;;21.77;;
6432;SDS011;3249;42.690;23.260;2024-02-26T01:57:15;32.00;;;22.43;;
6432;SDS011;3249;42.690;23.260;2024-02-26T01:59:45;32.30;;;22.37;;
6432;SDS011;3249;42.690;23.260;2024-02-26T02:02:14;31.97;;;23.23;;
6432;SDS011;3249;42.690;23.260;2024-02-26T02:04:44;30.33;;;22.97;;
6432;SDS011;3249;42.690;23.260;2024-02-26T02:07:15;30.83;;;22.93;;
6432;SDS011;3249;42.690;23.260;2024-02-26T02:09:47;31.07;;;23.97;;
6432;SDS011;3249;42.690;23.260;2024-02-26T02:12:16;30.93;;;23.57;;
6432;SDS011;3249;42.690;23.260;2024-02-26T02:14:47;34.27;;;24.40;;
6432;SDS011;3249;42.690;23.260;2024-02-26T02:17:17;37.60;;;26.37;;
6432;SDS011;3249;42.690;23.260;2024-02-26T02:19:47;33.97;;;24.97;;
6432;SDS011;3249;42.690;23.260;2024-02-26T02:22:19;34.33;;;23.87;;
6432;SDS011;3249;42.690;23.260;2024-02-26T02:24:48;37.97;;;25.47;;
6432;SDS011;3249;42.690;23.260;2024-02-26T02:27:19;34.20;;;24.37;;
6432;SDS011;3249;42.690;23.260;2024-02-26T02:29:49;33.53;;;23.63;;
6432;SDS011;3249;42.690;23.260;2024-02-26T02:32:18;33.60;;;25.40;;
6432;SDS011;3249;42.690;23.260;2024-02-26T02:34:49;40.67;;;26.03;;
6432;SDS011;3249;42.690;23.260;2024-02-26T02:37:21;35.90;;;24.37;;
6432;SDS011;3249;42.690;23.260;2024-02-26T02:39:51;34.13;;;25.80;;
6432;SDS011;3249;42.690;23.260;2024-02-26T02:42:20;33.37;;;25.47;;
6432;SDS011;3249;42.690;23.260;2024-02-26T02:44:49;36.83;;;26.17;;
6432;SDS011;3249;42.690;23.260;2024-02-26T02:47:18;36.83;;;27.37;;
6432;SDS011;3249;42.690;23.260;2024-02-26T02:49:48;30.23;;;24.80;;
6432;SDS011;3249;42.690;23.260;2024-02-26T02:52:18;36.73;;;25.43;;
6432;SDS011;3249;42.690;23.260;2024-02-26T02:54:49;40.80;;;26.43;;
6432;SDS011;3249;42.690;23.260;2024-02-26T02:57:18;34.97;;;25.33;;
6432;SDS011;3249;42.690;23.260;2024-02-26T02:59:48;35.43;;;25.10;;
6432;SDS011;3249;42.690;23.260;2024-02-26T03:02:17;33.70;;;25.37;;
6432;SDS011;3249;42.690;23.260;2024-02-26T03:04:49;33.50;;;25.73;;
6432;SDS011;3249;42.690;23.260;2024-02-26T03:07:47;33.83;;;25.90;;
6432;SDS011;3249;42.690;23.260;2024-02-26T03:10:16;34.37;;;25.77;;
6432;SDS011;3249;42.690;23.260;2024-02-26T03:12:46;33.87;;;25.87;;
6432;SDS011;3249;42.690;23.260;2024-02-26T03:15:16;34.83;;;25.17;;
6432;SDS011;3249;42.690;23.260;2024-02-26T03:17:46;39.77;;;27.50;;
6432;SDS011;3249;42.690;23.260;2024-02-26T03:20:17;43.50;;;28.30;;
6432;SDS011;3249;42.690;23.260;2024-02-26T03:22:49;170.67;;;83.67;;
6432;SDS011;3249;42.690;23.260;2024-02-26T03:25:18;178.43;;;84.53;;
6432;SDS011;3249;42.690;23.260;2024-02-26T03:27:48;73.40;;;41.57;;
6432;SDS011;3249;42.690;23.260;2024-02-26T03:30:17;36.63;;;27.50;;
6432;SDS011;3249;42.690;23.260;2024-02-26T03:32:47;33.90;;;25.37;;
6432;SDS011;3249;42.690;23.260;2024-02-26T03:35:16;32.73;;;25.90;;
6432;SDS011;3249;42.690;23.260;2024-02-26T03:37:45;35.47;;;28.60;;
6432;SDS011;3249;42.690;23.260;2024-02-26T03:40:36;37.53;;;27.43;;
6432;SDS011;3249;42.690;23.260;2024-02-26T03:43:06;36.80;;;28.53;;
6432;SDS011;3249;42.690;23.260;2024-02-26T03:45:35;35.57;;;27.30;;
6432;SDS011;3249;42.690;23.260;2024-02-26T03:48:05;36.27;;;26.43;;
6432;SDS011;3249;42.690;23.260;2024-02-26T03:50:35;36.20;;;25.53;;
6432;SDS011;3249;42.690;23.260;2024-02-26T03:53:06;33.90;;;25.97;;
6432;SDS011;3249;42.690;23.260;2024-02-26T03:55:38;41.63;;;30.73;;
6432;SDS011;3249;42.690;23.260;2024-02-26T03:58:08;45.03;;;34.17;;
6432;SDS011;3249;42.690;23.260;2024-02-26T04:00:37;69.10;;;47.90;;
6432;SDS011;3249;42.690;23.260;2024-02-26T04:03:06;57.47;;;42.43;;
6432;SDS011;3249;42.690;23.260;2024-02-26T04:05:35;43.97;;;32.93;;
6432;SDS011;3249;42.690;23.260;2024-02-26T04:08:08;38.33;;;30.43;;
6432;SDS011;3249;42.690;23.260;2024-02-26T04:10:38;43.90;;;32.27;;
6432;SDS011;3249;42.690;23.260;2024-02-26T04:13:07;43.10;;;28.10;;
6432;SDS011;3249;42.690;23.260;2024-02-26T04:15:36;48.60;;;30.43;;
6432;SDS011;3249;42.690;23.260;2024-02-26T04:18:06;44.17;;;31.07;;
6432;SDS011;3249;42.690;23.260;2024-02-26T04:20:36;42.57;;;31.27;;
6432;SDS011;3249;42.690;23.260;2024-02-26T04:23:11;48.23;;;31.80;;
6432;SDS011;3249;42.690;23.260;2024-02-26T04:25:40;50.00;;;33.03;;
6432;SDS011;3249;42.690;23.260;2024-02-26T04:28:09;45.57;;;32.50;;
6432;SDS011;3249;42.690;23.260;2024-02-26T04:30:38;44.33;;;30.20;;
6432;SDS011;3249;42.690;23.260;2024-02-26T04:33:08;43.47;;;31.90;;
6432;SDS011;3249;42.690;23.260;2024-02-26T04:35:37;49.33;;;31.07;;
6432;SDS011;3249;42.690;23.260;2024-02-26T04:38:07;45.00;;;32.33;;
6432;SDS011;3249;42.690;23.260;2024-02-26T04:40:39;50.67;;;31.83;;
6432;SDS011;3249;42.690;23.260;2024-02-26T04:43:08;41.23;;;31.10;;
6432;SDS011;3249;42.690;23.260;2024-02-26T04:45:37;45.23;;;32.60;;
6432;SDS011;3249;42.690;23.260;2024-02-26T04:48:08;49.03;;;32.90;;
6432;SDS011;3249;42.690;23.260;2024-02-26T04:50:37;43.63;;;31.87;;
6432;SDS011;3249;42.690;23.260;2024-02-26T04:53:06;45.90;;;33.33;;
6432;SDS011;3249;42.690;23.260;2024-02-26T04:55:35;49.90;;;34.97;;
6432;SDS011;3249;42.690;23.260;2024-02-26T04:58:07;55.93;;;37.50;;
6432;SDS011;3249;42.690;23.260;2024-02-26T05:00:37;49.30;;;35.00;;
6432;SDS011;3249;42.690;23.260;2024-02-26T05:03:07;42.17;;;29.43;;
6432;SDS011;3249;42.690;23.260;2024-02-26T05:05:39;47.57;;;31.77;;
6432;SDS011;3249;42.690;23.260;2024-02-26T05:08:10;38.67;;;27.17;;
6432;SDS011;3249;42.690;23.260;2024-02-26T05:10:44;36.00;;;26.47;;
6432;SDS011;3249;42.690;23.260;2024-02-26T05:13:15;32.23;;;22.87;;
6432;SDS011;3249;42.690;23.260;2024-02-26T05:15:44;30.07;;;22.70;;
6432;SDS011;3249;42.690;23.260;2024-02-26T05:18:15;28.30;;;22.33;;
6432;SDS011;3249;42.690;23.260;2024-02-26T05:20:44;32.70;;;23.83;;
6432;SDS011;3249;42.690;23.260;2024-02-26T05:23:13;34.10;;;25.17;;
6432;SDS011;3249;42.690;23.260;2024-02-26T05:25:45;42.93;;;25.93;;
6432;SDS011;3249;42.690;23.260;2024-02-26T05:28:14;43.97;;;31.97;;
6432;SDS011;3249;42.690;23.260;2024-02-26T05:30:46;33.17;;;25.20;;
6432;SDS011;3249;42.690;23.260;2024-02-26T05:33:15;40.57;;;27.47;;
6432;SDS011;3249;42.690;23.260;2024-02-26T05:35:44;42.13;;;27.70;;
6432;SDS011;3249;42.690;23.260;2024-02-26T05:38:15;42.07;;;27.90;;
6432;SDS011;3249;42.690;23.260;2024-02-26T05:40:47;40.17;;;26.93;;
6432;SDS011;3249;42.690;23.260;2024-02-26T05:43:18;38.20;;;28.47;;
6432;SDS011;3249;42.690;23.260;2024-02-26T05:45:47;43.63;;;32.00;;
6432;SDS011;3249;42.690;23.260;2024-02-26T05:48:16;35.53;;;25.17;;
6432;SDS011;3249;42.690;23.260;2024-02-26T05:50:46;33.20;;;24.90;;
6432;SDS011;3249;42.690;23.260;2024-02-26T05:53:15;29.67;;;22.53;;
6432;SDS011;3249;42.690;23.260;2024-02-26T05:55:47;32.07;;;22.87;;
6432;SDS011;3249;42.690;23.260;2024-02-26T05:58:16;28.03;;;21.27;;
6432;SDS011;3249;42.690;23.260;2024-02-26T06:00:45;30.53;;;22.77;;
6432;SDS011;3249;42.690;23.260;2024-02-26T06:03:15;30.97;;;22.30;;
6432;SDS011;3249;42.690;23.260;2024-02-26T06:05:44;33.30;;;24.03;;
6432;SDS011;3249;42.690;23.260;2024-02-26T06:08:14;34.43;;;25.67;;
6432;SDS011;3249;42.690;23.260;2024-02-26T06:10:43;39.00;;;25.27;;
6432;SDS011;3249;42.690;23.260;2024-02-26T06:13:15;40.83;;;30.27;;
6432;SDS011;3249;42.690;23.260;2024-02-26T06:15:44;44.40;;;28.47;;
6432;SDS011;3249;42.690;23.260;2024-02-26T06:18:13;38.70;;;27.03;;
6432;SDS011;3249;42.690;23.260;2024-02-26T06:20:43;41.53;;;30.10;;
6432;SDS011;3249;42.690;23.260;2024-02-26T06:23:12;39.97;;;30.63;;
6432;SDS011;3249;42.690;23.260;2024-02-26T06:25:41;42.97;;;29.40;;
6432;SDS011;3249;42.690;23.260;2024-02-26T06:28:15;51.00;;;31.30;;
6432;SDS011;3249;42.690;23.260;2024-02-26T06:30:44;48.93;;;28.73;;
6432;SDS011;3249;42.690;23.260;2024-02-26T06:33:14;41.27;;;28.73;;
6432;SDS011;3249;42.690;23.260;2024-02-26T06:35:43;45.13;;;29.93;;
6432;SDS011;3249;42.690;23.260;2024-02-26T06:38:12;49.10;;;33.40;;
6432;SDS011;3249;42.690;23.260;2024-02-26T06:40:43;47.90;;;34.83;;
6432;SDS011;3249;42.690;23.260;2024-02-26T06:43:16;39.67;;;30.87;;
6432;SDS011;3249;42.690;23.260;2024-02-26T06:45:45;50.43;;;34.57;;
6432;SDS011;3249;42.690;23.260;2024-02-26T06:48:14;50.33;;;37.13;;
6432;SDS011;3249;42.690;23.260;2024-02-26T06:50:43;83.87;;;61.90;;
6432;SDS011;3249;42.690;23.260;2024-02-26T06:53:12;81.00;;;56.20;;
6432;SDS011;3249;42.690;23.260;2024-02-26T06:55:42;124.60;;;84.40;;
6432;SDS011;3249;42.690;23.260;2024-02-26T06:58:11;115.87;;;83.97;;
6432;SDS011;3249;42.690;23.260;2024-02-26T07:00:43;72.43;;;49.50;;
6432;SDS011;3249;42.690;23.260;2024-02-26T07:03:13;71.20;;;50.13;;
6432;SDS011;3249;42.690;23.260;2024-02-26T07:05:42;69.17;;;46.40;;
6432;SDS011;3249;42.690;23.260;2024-02-26T07:08:13;63.73;;;45.80;;
6432;SDS011;3249;42.690;23.260;2024-02-26T07:10:42;54.47;;;40.03;;
6432;SDS011;3249;42.690;23.260;2024-02-26T07:13:11;55.90;;;37.27;;
6432;SDS011;3249;42.690;23.260;2024-02-26T07:15:43;57.57;;;35.93;;
6432;SDS011;3249;42.690;23.260;2024-02-26T07:18:12;62.00;;;41.57;;
6432;SDS011;3249;42.690;23.260;2024-02-26T07:20:42;57.40;;;36.60;;
6432;SDS011;3249;42.690;23.260;2024-02-26T07:23:11;47.67;;;36.17;;
6432;SDS011;3249;42.690;23.260;2024-02-26T07:25:41;53.00;;;37.10;;
6432;SDS011;3249;42.690;23.260;2024-02-26T07:28:10;49.17;;;34.37;;
6432;SDS011;3249;42.690;23.260;2024-02-26T07:30:39;56.23;;;41.87;;
6432;SDS011;3249;42.690;23.260;2024-02-26T07:33:11;76.20;;;47.20;;
6432;SDS011;3249;42.690;23.260;2024-02-26T07:35:41;49.07;;;35.00;;
6432;SDS011;3249;42.690;23.260;2024-02-26T07:38:10;44.83;;;30.83;;
6432;SDS011;3249;42.690;23.260;2024-02-26T07:40:39;49.20;;;31.60;;
6432;SDS011;3249;42.690;23.260;2024-02-26T07:43:09;37.17;;;28.20;;
6432;SDS011;3249;42.690;23.260;2024-02-26T07:45:38;37.63;;;27.03;;
6432;SDS011;3249;42.690;23.260;2024-02-26T07:48:09;41.13;;;28.73;;
6432;SDS011;3249;42.690;23.260;2024-02-26T07:50:40;37.47;;;27.33;;
6432;SDS011;3249;42.690;23.260;2024-02-26T07:53:09;57.37;;;42.17;;
6432;SDS011;3249;42.690;23.260;2024-02-26T07:55:38;54.97;;;38.00;;
6432;SDS011;3249;42.690;23.260;2024-02-26T07:58:07;43.10;;;32.57;;
6432;SDS011;3249;42.690;23.260;2024-02-26T08:00:36;52.47;;;33.03;;
6432;SDS011;3249;42.690;23.260;2024-02-26T08:03:05;45.80;;;33.47;;
6432;SDS011;3249;42.690;23.260;2024-02-26T08:05:37;49.70;;;36.17;;
6432;SDS011;3249;42.690;23.260;2024-02-26T08:08:08;55.57;;;36.70;;
6432;SDS011;3249;42.690;23.260;2024-02-26T08:10:37;53.23;;;34.83;;
6432;SDS011;3249;42.690;23.260;2024-02-26T08:13:07;52.77;;;37.20;;
6432;SDS011;3249;42.690;23.260;2024-02-26T08:15:36;48.57;;;35.27;;
6432;SDS011;3249;42.690;23.260;2024-02-26T08:18:06;55.80;;;35.27;;
6432;SDS011;3249;42.690;23.260;2024-02-26T08:20:35;59.53;;;37.97;;
6432;SDS011;3249;42.690;23.260;2024-02-26T08:23:06;48.47;;;36.27;;
6432;SDS011;3249;42.690;23.260;2024-02-26T08:25:36;50.10;;;33.00;;
6432;SDS011;3249;42.690;23.260;2024-02-26T08:28:06;45.67;;;31.33;;
6432;SDS011;3249;42.690;23.260;2024-02-26T08:30:36;44.83;;;29.93;;
6432;SDS011;3249;42.690;23.260;2024-02-26T08:33:06;45.87;;;30.90;;
6432;SDS011;3249;42.690;23.260;2024-02-26T08:35:38;40.13;;;29.10;;
6432;SDS011;3249;42.690;23.260;2024-02-26T08:38:07;40.70;;;29.37;;
6432;SDS011;3249;42.690;23.260;2024-02-26T08:40:36;42.17;;;29.10;;
6432;SDS011;3249;42.690;23.260;2024-02-26T08:43:05;43.00;;;28.87;;
6432;SDS011;3249;42.690;23.260;2024-02-26T08:45:36;48.10;;;29.77;;
6432;SDS011;3249;42.690;23.260;2024-02-26T08:48:06;34.93;;;26.80;;
6432;SDS011;3249;42.690;23.260;2024-02-26T08:50:38;39.67;;;27.83;;
6432;SDS011;3249;42.690;23.260;2024-02-26T08:53:07;36.93;;;28.40;;
6432;SDS011;3249;42.690;23.260;2024-02-26T08:55:37;41.00;;;27.03;;
6432;SDS011;3249;42.690;23.260;2024-02-26T08:58:07;39.33;;;27.30;;
6432;SDS011;3249;42.690;23.260;2024-02-26T09:00:36;38.10;;;24.83;;
6432;SDS011;3249;42.690;23.260;2024-02-26T09:03:05;35.17;;;25.57;;
6432;SDS011;3249;42.690;23.260;2024-02-26T09:05:34;34.27;;;26.70;;
6432;SDS011;3249;42.690;23.260;2024-02-26T09:08:06;40.90;;;26.83;;
6432;SDS011;3249;42.690;23.260;2024-02-26T09:10:36;41.30;;;28.60;;
6432;SDS011;3249;42.690;23.260;2024-02-26T09:13:05;44.53;;;28.10;;
6432;SDS011;3249;42.690;23.260;2024-02-26T09:15:34;35.70;;;26.87;;
6432;SDS011;3249;42.690;23.260;2024-02-26T09:18:04;39.30;;;27.43;;
6432;SDS011;3249;42.690;23.260;2024-02-26T09:20:34;30.00;;;24.80;;
6432;SDS011;3249;42.690;23.260;2024-02-26T09:23:05;31.57;;;24.83;;
6432;SDS011;3249;42.690;23.260;2024-02-26T09:25:35;34.60;;;25.70;;
6432;SDS011;3249;42.690;23.260;2024-02-26T09:28:04;39.83;;;26.77;;
6432;SDS011;3249;42.690;23.260;2024-02-26T09:30:35;34.43;;;27.10;;
6432;SDS011;3249;42.690;23.260;2024-02-26T09:33:04;33.47;;;25.87;;
6432;SDS011;3249;42.690;23.260;2024-02-26T09:35:33;36.70;;;26.07;;
6432;SDS011;3249;42.690;23.260;2024-02-26T09:38:06;30.97;;;23.07;;
6432;SDS011;3249;42.690;23.260;2024-02-26T09:40:35;32.90;;;24.93;;
6432;SDS011;3249;42.690;23.260;2024-02-26T09:43:05;31.43;;;23.10;;
6432;SDS011;3249;42.690;23.260;2024-02-26T09:45:38;38.83;;;23.50;;
6432;SDS011;3249;42.690;23.260;2024-02-26T09:48:10;35.13;;;23.83;;
6432;SDS011;3249;42.690;23.260;2024-02-26T09:50:42;38.07;;;26.57;;
6432;SDS011;3249;42.690;23.260;2024-02-26T09:53:15;38.97;;;25.37;;
6432;SDS011;3249;42.690;23.260;2024-02-26T09:55:46;34.87;;;25.80;;
6432;SDS011;3249;42.690;23.260;2024-02-26T09:58:16;29.93;;;24.07;;
6432;SDS011;3249;42.690;23.260;2024-02-26T10:00:47;38.30;;;25.53;;
6432;SDS011;3249;42.690;23.260;2024-02-26T10:03:25;19.87;;;16.07;;
6432;SDS011;3249;42.690;23.260;2024-02-26T10:06:00;9.20;;;6.50;;
6432;SDS011;3249;42.690;23.260;2024-02-26T10:08:34;8.63;;;6.53;;
6432;SDS011;3249;42.690;23.260;2024-02-26T10:11:04;8.30;;;6.67;;
6432;SDS011;3249;42.690;23.260;2024-02-26T10:13:36;10.83;;;7.17;;
6432;SDS011;3249;42.690;23.260;2024-02-26T10:16:06;8.20;;;7.40;;
6432;SDS011;3249;42.690;23.260;2024-02-26T10:18:45;7.80;;;7.00;;
6432;SDS011;3249;42.690;23.260;2024-02-26T10:21:16;8.77;;;7.40;;
6432;SDS011;3249;42.690;23.260;2024-02-26T10:23:49;10.40;;;7.30;;
6432;SDS011;3249;42.690;23.260;2024-02-26T10:26:19;11.93;;;7.47;;
6432;SDS011;3249;42.690;23.260;2024-02-26T10:28:49;14.07;;;8.27;;
6432;SDS011;3249;42.690;23.260;2024-02-26T10:31:18;9.43;;;6.30;;
6432;SDS011;3249;42.690;23.260;2024-02-26T10:33:48;15.73;;;7.90;;
6432;SDS011;3249;42.690;23.260;2024-02-26T10:36:17;8.03;;;6.63;;
6432;SDS011;3249;42.690;23.260;2024-02-26T10:38:49;6.73;;;6.17;;
6432;SDS011;3249;42.690;23.260;2024-02-26T10:41:19;9.10;;;6.40;;
6432;SDS011;3249;42.690;23.260;2024-02-26T10:43:48;7.50;;;6.90;;
6432;SDS011;3249;42.690;23.260;2024-02-26T10:46:18;10.40;;;7.13;;
6432;SDS011;3249;42.690;23.260;2024-02-26T10:48:49;9.30;;;7.27;;
6432;SDS011;3249;42.690;23.260;2024-02-26T10:51:20;7.57;;;6.53;;
6432;SDS011;3249;42.690;23.260;2024-02-26T10:53:57;8.67;;;7.17;;
6432;SDS011;3249;42.690;23.260;2024-02-26T10:56:28;7.20;;;6.67;;
6432;SDS011;3249;42.690;23.260;2024-02-26T10:58:58;8.40;;;6.80;;
6432;SDS011;3249;42.690;23.260;2024-02-26T11:01:28;10.93;;;7.20;;
6432;SDS011;3249;42.690;23.260;2024-02-26T11:03:58;7.43;;;6.80;;
6432;SDS011;3249;42.690;23.260;2024-02-26T11:06:29;7.13;;;6.63;;
6432;SDS011;3249;42.690;23.260;2024-02-26T11:09:03;10.57;;;7.63;;
6432;SDS011;3249;42.690;23.260;2024-02-26T11:11:33;16.80;;;10.33;;
6432;SDS011;3249;42.690;23.260;2024-02-26T11:14:03;11.57;;;8.33;;
6432;SDS011;3249;42.690;23.260;2024-02-26T11:16:33;12.33;;;7.23;;
6432;SDS011;3249;42.690;23.260;2024-02-26T11:19:04;6.73;;;6.17;;
6432;SDS011;3249;42.690;23.260;2024-02-26T11:21:37;9.00;;;6.60;;
6432;SDS011;3249;42.690;23.260;2024-02-26T11:24:12;7.57;;;6.10;;
6432;SDS011;3249;42.690;23.260;2024-02-26T11:26:44;6.93;;;6.40;;
6432;SDS011;3249;42.690;23.260;2024-02-26T11:29:19;9.40;;;7.17;;
6432;SDS011;3249;42.690;23.260;2024-02-26T11:31:52;8.50;;;7.70;;
6432;SDS011;3249;42.690;23.260;2024-02-26T11:34:22;15.13;;;6.80;;
6432;SDS011;3249;42.690;23.260;2024-02-26T11:36:53;7.40;;;6.50;;
6432;SDS011;3249;42.690;23.260;2024-02-26T11:39:26;6.73;;;6.00;;
6432;SDS011;3249;42.690;23.260;2024-02-26T11:42:04;7.30;;;6.60;;
6432;SDS011;3249;42.690;23.260;2024-02-26T11:44:35;6.90;;;6.30;;
6432;SDS011;3249;42.690;23.260;2024-02-26T11:47:11;10.03;;;6.57;;
6432;SDS011;3249;42.690;23.260;2024-02-26T11:49:41;7.57;;;6.93;;
6432;SDS011;3249;42.690;23.260;2024-02-26T11:52:12;8.23;;;6.30;;
6432;SDS011;3249;42.690;23.260;2024-02-26T11:54:49;9.80;;;6.63;;
6432;SDS011;3249;42.690;23.260;2024-02-26T11:57:20;6.67;;;6.10;;
6432;SDS011;3249;42.690;23.260;2024-02-26T11:59:49;8.57;;;6.93;;
6432;SDS011;3249;42.690;23.260;2024-02-26T12:02:40;8.60;;;6.77;;
6432;SDS011;3249;42.690;23.260;2024-02-26T12:05:12;6.90;;;6.20;;
6432;SDS011;3249;42.690;23.260;2024-02-26T12:07:45;6.60;;;6.03;;
6432;SDS011;3249;42.690;23.260;2024-02-26T12:10:20;7.60;;;5.63;;
6432;SDS011;3249;42.690;23.260;2024-02-26T12:13:04;5.73;;;5.23;;
6432;SDS011;3249;42.690;23.260;2024-02-26T12:15:36;6.03;;;5.50;;
6432;SDS011;3249;42.690;23.260;2024-02-26T12:18:07;7.07;;;6.30;;
6432;SDS011;3249;42.690;23.260;2024-02-26T12:20:36;8.20;;;6.57;;
6432;SDS011;3249;42.690;23.260;2024-02-26T12:23:06;6.23;;;5.70;;
6432;SDS011;3249;42.690;23.260;2024-02-26T12:25:37;7.00;;;5.70;;
6432;SDS011;3249;42.690;23.260;2024-02-26T12:28:07;8.67;;;6.47;;
6432;SDS011;3249;42.690;23.260;2024-02-26T12:30:36;9.60;;;5.73;;
6432;SDS011;3249;42.690;23.260;2024-02-26T12:33:06;6.70;;;6.10;;
6432;SDS011;3249;42.690;23.260;2024-02-26T12:35:36;9.23;;;5.93;;
6432;SDS011;3249;42.690;23.260;2024-02-26T12:38:05;5.97;;;5.47;;
6432;SDS011;3249;42.690;23.260;2024-02-26T12:40:35;9.63;;;5.83;;
6432;SDS011;3249;42.690;23.260;2024-02-26T12:43:06;6.73;;;6.07;;
6432;SDS011;3249;42.690;23.260;2024-02-26T12:45:39;9.30;;;6.53;;
6432;SDS011;3249;42.690;23.260;2024-02-26T12:48:10;8.33;;;5.70;;
6432;SDS011;3249;42.690;23.260;2024-02-26T12:50:44;6.07;;;5.53;;
6432;SDS011;3249;42.690;23.260;2024-02-26T12:53:13;8.17;;;6.07;;
6432;SDS011;3249;42.690;23.260;2024-02-26T12:55:47;7.30;;;6.00;;
6432;SDS011;3249;42.690;23.260;2024-02-26T12:58:16;7.13;;;5.53;;
6432;SDS011;3249;42.690;23.260;2024-02-26T13:00:50;6.97;;;5.73;;
6432;SDS011;3249;42.690;23.260;2024-02-26T13:03:20;6.40;;;5.80;;
6432;SDS011;3249;42.690;23.260;2024-02-26T13:05:51;6.83;;;6.23;;
6432;SDS011;3249;42.690;23.260;2024-02-26T13:08:21;10.63;;;6.43;;
6432;SDS011;3249;42.690;23.260;2024-02-26T13:10:54;6.67;;;6.10;;
6432;SDS011;3249;42.690;23.260;2024-02-26T13:13:23;6.33;;;5.83;;
6432;SDS011;3249;42.690;23.260;2024-02-26T13:16:00;7.07;;;6.37;;
6432;SDS011;3249;42.690;23.260;2024-02-26T13:18:34;5.90;;;5.27;;
6432;SDS011;3249;42.690;23.260;2024-02-26T13:21:09;7.53;;;5.70;;
6432;SDS011;3249;42.690;23.260;2024-02-26T13:23:40;6.47;;;5.93;;
6432;SDS011;3249;42.690;23.260;2024-02-26T13:26:14;7.00;;;6.00;;
6432;SDS011;3249;42.690;23.260;2024-02-26T13:28:45;7.57;;;6.70;;
6432;SDS011;3249;42.690;23.260;2024-02-26T13:31:14;9.33;;;6.33;;
6432;SDS011;3249;42.690;23.260;2024-02-26T13:33:44;7.90;;;5.57;;
6432;SDS011;3249;42.690;23.260;2024-02-26T13:36:15;5.70;;;5.17;;
6432;SDS011;3249;42.690;23.260;2024-02-26T13:38:50;9.20;;;5.80;;
6432;SDS011;3249;42.690;23.260;2024-02-26T13:41:24;6.87;;;6.20;;
6432;SDS011;3249;42.690;23.260;2024-02-26T13:43:53;5.80;;;5.37;;
6432;SDS011;3249;42.690;23.260;2024-02-26T13:46:23;6.63;;;6.03;;
6432;SDS011;3249;42.690;23.260;2024-02-26T13:48:52;6.97;;;5.00;;
6432;SDS011;3249;42.690;23.260;2024-02-26T13:51:24;6.13;;;5.53;;
6432;SDS011;3249;42.690;23.260;2024-02-26T13:53:54;12.10;;;6.10;;
6432;SDS011;3249;42.690;23.260;2024-02-26T13:56:26;7.37;;;5.87;;
6432;SDS011;3249;42.690;23.260;2024-02-26T13:58:55;9.03;;;6.13;;
6432;SDS011;3249;42.690;23.260;2024-02-26T14:01:25;7.70;;;7.00;;
6432;SDS011;3249;42.690;23.260;2024-02-26T14:03:54;7.83;;;5.93;;
6432;SDS011;3249;42.690;23.260;2024-02-26T14:06:23;9.83;;;5.93;;
6432;SDS011;3249;42.690;23.260;2024-02-26T14:08:52;7.17;;;5.83;;
6432;SDS011;3249;42.690;23.260;2024-02-26T14:11:22;12.70;;;6.70;;
6432;SDS011;3249;42.690;23.260;2024-02-26T14:13:54;7.93;;;6.77;;
6432;SDS011;3249;42.690;23.260;2024-02-26T14:16:24;9.90;;;5.73;;
6432;SDS011;3249;42.690;23.260;2024-02-26T14:18:53;10.93;;;7.07;;
6432;SDS011;3249;42.690;23.260;2024-02-26T14:21:22;9.03;;;5.93;;
6432;SDS011;3249;42.690;23.260;2024-02-26T14:23:52;8.00;;;5.80;;
6432;SDS011;3249;42.690;23.260;2024-02-26T14:26:22;7.10;;;6.00;;
6432;SDS011;3249;42.690;23.260;2024-02-26T14:28:51;8.40;;;5.73;;
6432;SDS011;3249;42.690;23.260;2024-02-26T14:31:24;7.27;;;6.03;;
6432;SDS011;3249;42.690;23.260;2024-02-26T14:33:53;7.20;;;5.87;;
6432;SDS011;3249;42.690;23.260;2024-02-26T14:36:22;11.07;;;5.63;;
6432;SDS011;3249;42.690;23.260;2024-02-26T14:38:52;8.67;;;5.67;;
6432;SDS011;3249;42.690;23.260;2024-02-26T14:41:21;6.33;;;5.80;;
6432;SDS011;3249;42.690;23.260;2024-02-26T14:43:50;5.33;;;4.80;;
6432;SDS011;3249;42.690;23.260;2024-02-26T14:46:19;11.30;;;5.53;;
6432;SDS011;3249;42.690;23.260;2024-02-26T14:48:52;7.87;;;5.50;;
6432;SDS011;3249;42.690;23.260;2024-02-26T14:51:21;7.90;;;6.57;;
6432;SDS011;3249;42.690;23.260;2024-02-26T14:53:50;10.43;;;5.77;;
6432;SDS011;3249;42.690;23.260;2024-02-26T14:56:20;7.90;;;5.50;;
6432;SDS011;3249;42.690;23.260;2024-02-26T14:58:49;8.67;;;6.57;;
6432;SDS011;3249;42.690;23.260;2024-02-26T15:01:18;6.13;;;5.50;;
6432;SDS011;3249;42.690;23.260;2024-02-26T15:03:48;16.20;;;7.20;;